Time;durP1;ratioP1;P1;durP2;ratioP2;P2;SDS_P1;SDS_P2;PMS_P1;PMS_P2;Temp;Humidity;BMP_temperature;BMP_pressure;BME280_temperature;BME280_humidity;BME280_pressure;Samples;Min_cycle;Max_cycle;Signal;HPM_P1;HPM_P2
2023/04/21 00:01:00;;;;;;;9.55;6.97;;;8.20;99.90;;;;;;5064225;28;20036;-82
2023/04/21 00:03:27;;;;;;;8.43;6.07;;;8.30;99.90;;;;;;5036886;28;20119;-83
2023/04/21 00:05:57;;;;;;;13.48;7.85;;;8.20;99.90;;;;;;5038512;28;20033;-85
2023/04/21 00:08:25;;;;;;;10.18;7.38;;;8.20;99.90;;;;;;5035938;28;20509;-83
2023/04/21 00:10:51;;;;;;;11.57;7.05;;;8.30;99.90;;;;;;5038125;28;20465;-83
2023/04/21 00:13:17;;;;;;;9.95;6.78;;;8.20;99.90;;;;;;5067473;28;20115;-82
2023/04/21 00:15:42;;;;;;;11.60;6.90;;;8.20;99.90;;;;;;5064307;28;20032;-82
2023/04/21 00:18:08;;;;;;;11.85;7.85;;;8.20;99.90;;;;;;5063135;28;20065;-88
2023/04/21 00:20:34;;;;;;;12.02;8.20;;;8.20;99.90;;;;;;5037044;28;20070;-88
2023/04/21 00:23:00;;;;;;;10.07;7.28;;;8.20;99.90;;;;;;5034393;28;20035;-84
2023/04/21 00:25:26;;;;;;;10.93;7.18;;;8.20;99.90;;;;;;5035789;28;20108;-84
2023/04/21 00:27:52;;;;;;;10.98;7.22;;;8.20;99.90;;;;;;5039439;28;20413;-87
2023/04/21 00:30:17;;;;;;;10.55;7.45;;;8.20;99.90;;;;;;5052708;28;20032;-85
2023/04/21 00:32:43;;;;;;;9.77;6.50;;;8.20;99.90;;;;;;5039675;28;20021;-83
2023/04/21 00:35:09;;;;;;;10.20;6.82;;;8.20;99.90;;;;;;5034053;28;20082;-83
2023/04/21 00:37:35;;;;;;;10.45;6.75;;;8.20;99.90;;;;;;5047152;28;20123;-87
2023/04/21 00:40:03;;;;;;;9.73;5.80;;;8.20;99.90;;;;;;5065251;28;20028;-86
2023/04/21 00:42:29;;;;;;;9.95;6.20;;;8.10;99.90;;;;;;5053041;28;20123;-84
2023/04/21 00:44:55;;;;;;;9.13;6.43;;;8.10;99.90;;;;;;5037771;28;20071;-84
2023/04/21 00:47:20;;;;;;;10.52;7.47;;;8.20;99.90;;;;;;5040522;28;20487;-89
2023/04/21 00:49:49;;;;;;;8.13;5.15;;;8.10;99.90;;;;;;5067995;28;20033;-86
2023/04/21 00:52:16;;;;;;;10.23;6.78;;;8.10;99.90;;;;;;5035229;28;20045;-86
2023/04/21 00:54:42;;;;;;;8.70;6.18;;;8.10;99.90;;;;;;5036948;28;20028;-86
2023/04/21 00:57:09;;;;;;;8.43;5.38;;;8.10;99.90;;;;;;5032894;28;20047;-90
2023/04/21 00:59:35;;;;;;;9.07;6.25;;;8.10;99.90;;;;;;5034333;28;20032;-88
2023/04/21 01:02:01;;;;;;;7.15;5.35;;;8.10;99.90;;;;;;5056642;28;20027;-88
2023/04/21 01:04:28;;;;;;;8.45;5.45;;;8.10;99.90;;;;;;5032042;28;20033;-87
2023/04/21 01:06:55;;;;;;;8.10;5.60;;;8.10;99.90;;;;;;5065831;28;20032;-90
2023/04/21 01:09:22;;;;;;;10.93;7.85;;;8.10;99.90;;;;;;5031600;28;20029;-89
2023/04/21 01:12:04;;;;;;;10.13;6.32;;;8.00;99.90;;;;;;5061924;28;20389;-90
2023/04/21 01:14:32;;;;;;;8.60;5.97;;;8.00;99.90;;;;;;5031463;28;20052;-90
2023/04/21 01:16:58;;;;;;;11.27;5.95;;;8.00;99.90;;;;;;5035638;28;20036;-87
2023/04/21 01:19:29;;;;;;;8.75;6.32;;;8.10;99.90;;;;;;5034268;28;20032;-87
2023/04/21 01:21:59;;;;;;;8.52;6.03;;;8.10;99.90;;;;;;5037548;28;20032;-87
2023/04/21 01:24:38;;;;;;;9.15;6.28;;;8.10;99.90;;;;;;5051302;28;20070;-87
2023/04/21 01:27:09;;;;;;;9.43;6.40;;;8.00;99.90;;;;;;5051383;28;20029;-88
2023/04/21 01:29:35;;;;;;;9.27;6.45;;;8.00;99.90;;;;;;5032770;28;20037;-87
2023/04/21 01:32:13;;;;;;;8.88;6.50;;;8.10;99.90;;;;;;5038645;28;20047;-88
2023/04/21 01:34:40;;;;;;;10.70;6.57;;;8.10;99.90;;;;;;5033927;28;20020;-87
2023/04/21 01:37:13;;;;;;;9.00;6.82;;;8.20;99.90;;;;;;5033707;28;20029;-88
2023/04/21 01:39:40;;;;;;;8.95;6.28;;;8.20;99.90;;;;;;5034861;28;20069;-89
2023/04/21 01:42:06;;;;;;;8.82;6.13;;;8.20;99.90;;;;;;5050173;28;20172;-88
2023/04/21 01:44:32;;;;;;;10.55;7.03;;;8.20;99.90;;;;;;5036134;28;20380;-90
2023/04/21 01:46:59;;;;;;;9.20;6.72;;;8.20;99.90;;;;;;5053339;28;20405;-88
2023/04/21 01:49:25;;;;;;;10.18;7.15;;;8.10;99.90;;;;;;5052687;28;20051;-89
2023/04/21 01:51:51;;;;;;;9.93;6.82;;;8.20;99.90;;;;;;5037525;28;20040;-89
2023/04/21 01:54:17;;;;;;;11.00;6.93;;;8.20;99.90;;;;;;5039004;28;20074;-87
2023/04/21 01:56:43;;;;;;;12.85;8.10;;;8.20;99.90;;;;;;5031918;28;20040;-89
2023/04/21 01:59:09;;;;;;;12.73;8.43;;;8.20;99.90;;;;;;5036787;28;20032;-88
2023/04/21 02:01:35;;;;;;;10.65;8.07;;;8.10;99.90;;;;;;5047100;28;20111;-87
2023/04/21 02:04:03;;;;;;;12.20;8.65;;;8.10;99.90;;;;;;5034891;28;20024;-88
2023/04/21 02:06:30;;;;;;;11.95;8.25;;;8.10;99.90;;;;;;5036836;28;20025;-88
2023/04/21 02:08:57;;;;;;;12.07;8.85;;;8.10;99.90;;;;;;5034396;28;20020;-87
2023/04/21 02:11:29;;;;;;;10.88;8.07;;;8.10;99.90;;;;;;5036587;28;20536;-90
2023/04/21 02:13:55;;;;;;;10.25;7.32;;;8.20;99.90;;;;;;5030689;28;20032;-89
2023/04/21 02:16:25;;;;;;;13.07;8.20;;;8.10;99.90;;;;;;5035940;28;20029;-88
2023/04/21 02:18:52;;;;;;;10.20;7.10;;;8.20;99.90;;;;;;5038329;28;20028;-88
2023/04/21 02:21:20;;;;;;;10.30;7.72;;;8.20;99.90;;;;;;5037414;28;20033;-88
2023/04/21 02:23:47;;;;;;;10.75;7.53;;;8.20;99.90;;;;;;5036752;28;20035;-88
2023/04/21 02:26:13;;;;;;;11.20;7.32;;;8.20;99.90;;;;;;5041230;28;20028;-88
2023/04/21 02:28:39;;;;;;;9.88;7.10;;;8.20;99.90;;;;;;5035336;28;20060;-88
2023/04/21 02:31:06;;;;;;;9.93;7.10;;;8.20;99.90;;;;;;5049672;28;20053;-88
2023/04/21 02:33:33;;;;;;;8.32;6.60;;;8.20;99.90;;;;;;5033788;28;20035;-88
2023/04/21 02:35:59;;;;;;;7.70;5.60;;;8.20;99.90;;;;;;5040892;28;20028;-88
2023/04/21 02:38:24;;;;;;;9.98;7.10;;;8.20;99.90;;;;;;5059816;28;20024;-87
2023/04/21 02:40:50;;;;;;;8.43;6.32;;;8.20;99.90;;;;;;5057033;28;20329;-87
2023/04/21 02:43:17;;;;;;;9.63;7.28;;;8.20;99.90;;;;;;5049597;28;20024;-87
2023/04/21 02:45:43;;;;;;;10.40;6.97;;;8.20;99.90;;;;;;5052626;28;20037;-87
2023/04/21 02:48:08;;;;;;;9.00;6.90;;;8.20;99.90;;;;;;5047547;28;20024;-87
2023/04/21 02:50:35;;;;;;;9.68;7.50;;;8.20;99.90;;;;;;5052143;28;20388;-87
2023/04/21 02:53:00;;;;;;;10.00;7.10;;;8.20;99.90;;;;;;5051769;28;20313;-88
2023/04/21 02:55:26;;;;;;;9.93;7.70;;;8.20;99.90;;;;;;5052412;28;20706;-87
2023/04/21 02:57:52;;;;;;;11.50;8.63;;;8.20;99.90;;;;;;5052575;28;20040;-87
2023/04/21 03:00:21;;;;;;;11.93;8.60;;;8.20;99.90;;;;;;5034393;28;20032;-87
2023/04/21 03:02:47;;;;;;;11.85;8.45;;;8.10;99.90;;;;;;5037325;28;20033;-87
2023/04/21 03:05:15;;;;;;;10.50;8.30;;;8.20;99.90;;;;;;5034041;28;20032;-86
2023/04/21 03:07:44;;;;;;;10.95;8.60;;;8.20;99.90;;;;;;5049138;28;20058;-87
2023/04/21 03:10:10;;;;;;;10.82;7.78;;;8.20;99.90;;;;;;5037967;28;20033;-87
2023/04/21 03:12:36;;;;;;;12.40;8.98;;;8.20;99.90;;;;;;5038905;28;20156;-87
2023/04/21 03:15:03;;;;;;;11.43;8.05;;;8.20;99.90;;;;;;5058180;28;20511;-86
2023/04/21 03:17:28;;;;;;;12.40;8.82;;;8.20;99.90;;;;;;5039740;28;20036;-87
2023/04/21 03:19:54;;;;;;;10.75;8.18;;;8.20;99.90;;;;;;5037776;28;20427;-86
2023/04/21 03:22:20;;;;;;;11.15;8.57;;;8.20;99.90;;;;;;5041650;28;20082;-87
2023/04/21 03:24:46;;;;;;;11.25;8.68;;;8.20;99.90;;;;;;5055558;28;20408;-87
2023/04/21 03:27:12;;;;;;;12.07;8.75;;;8.20;99.90;;;;;;5042383;28;20035;-87
2023/04/21 03:29:37;;;;;;;12.75;9.68;;;8.20;99.90;;;;;;5039547;28;20021;-87
2023/04/21 03:32:03;;;;;;;13.50;9.63;;;8.20;99.90;;;;;;5051568;28;20032;-86
2023/04/21 03:34:29;;;;;;;11.85;9.10;;;8.20;99.90;;;;;;5040120;28;20024;-86
2023/04/21 03:36:56;;;;;;;13.02;8.48;;;8.20;99.90;;;;;;5039497;28;20059;-86
2023/04/21 03:39:22;;;;;;;11.82;8.15;;;8.20;99.90;;;;;;5064153;28;20036;-87
2023/04/21 03:41:49;;;;;;;12.68;9.88;;;8.20;99.90;;;;;;5038091;28;20148;-87
2023/04/21 03:44:15;;;;;;;12.63;9.18;;;8.20;99.90;;;;;;5038901;28;20127;-87
2023/04/21 03:46:40;;;;;;;13.13;9.23;;;8.20;99.90;;;;;;5035363;28;20052;-87
2023/04/21 03:49:06;;;;;;;12.60;9.63;;;8.20;99.90;;;;;;5056726;28;20025;-86
2023/04/21 03:51:32;;;;;;;11.65;8.25;;;8.20;99.90;;;;;;5065357;28;20123;-87
2023/04/21 03:53:58;;;;;;;11.93;9.18;;;8.20;99.90;;;;;;5037318;28;20401;-87
2023/04/21 03:56:24;;;;;;;14.15;9.55;;;8.20;99.90;;;;;;5054139;28;20035;-87
2023/04/21 03:58:49;;;;;;;14.85;10.15;;;8.30;99.90;;;;;;5041142;28;20028;-87
2023/04/21 04:01:15;;;;;;;15.60;10.63;;;8.20;99.90;;;;;;5041689;28;20028;-87
2023/04/21 04:03:41;;;;;;;13.40;9.88;;;8.20;99.90;;;;;;5057206;28;20036;-87
2023/04/21 04:06:06;;;;;;;14.10;10.35;;;8.20;99.90;;;;;;5034535;28;20055;-87
2023/04/21 04:08:32;;;;;;;11.75;9.07;;;8.20;99.90;;;;;;5051328;28;20025;-86
2023/04/21 04:10:58;;;;;;;14.90;10.55;;;8.20;99.90;;;;;;5058481;28;20033;-86
2023/04/21 04:13:25;;;;;;;15.55;10.73;;;8.20;99.90;;;;;;5037397;28;20025;-87
2023/04/21 04:15:51;;;;;;;15.38;11.75;;;8.20;99.90;;;;;;5036299;28;20123;-87
2023/04/21 04:18:17;;;;;;;13.65;10.15;;;8.20;99.90;;;;;;5040253;28;20025;-86
2023/04/21 04:20:42;;;;;;;14.20;10.90;;;8.20;99.90;;;;;;5036453;28;20028;-87
2023/04/21 04:23:08;;;;;;;13.00;9.80;;;8.10;99.90;;;;;;5055971;28;20431;-86
2023/04/21 04:25:33;;;;;;;15.63;10.65;;;8.20;99.90;;;;;;5040867;28;20111;-87
2023/04/21 04:27:59;;;;;;;13.50;10.10;;;8.20;99.90;;;;;;5057025;28;20049;-86
2023/04/21 04:30:27;;;;;;;14.90;10.65;;;8.20;99.90;;;;;;5036001;28;20021;-86
2023/04/21 04:32:53;;;;;;;13.43;9.43;;;8.20;99.90;;;;;;5038114;28;20071;-86
2023/04/21 04:35:18;;;;;;;12.95;8.52;;;8.20;99.90;;;;;;5038860;28;20063;-87
2023/04/21 04:37:44;;;;;;;11.63;8.93;;;8.20;99.90;;;;;;5037521;28;20036;-86
2023/04/21 04:40:13;;;;;;;12.45;9.15;;;8.20;99.90;;;;;;5037442;28;20029;-86
2023/04/21 04:42:39;;;;;;;14.82;10.30;;;8.30;99.90;;;;;;5055321;28;20025;-87
2023/04/21 04:45:07;;;;;;;15.35;10.77;;;8.30;99.90;;;;;;5036520;28;20063;-87
2023/04/21 04:47:36;;;;;;;14.70;11.07;;;8.20;99.90;;;;;;5043050;28;20434;-86
2023/04/21 04:50:03;;;;;;;14.83;10.77;;;8.30;99.90;;;;;;5036213;28;20035;-86
2023/04/21 04:52:29;;;;;;;13.70;10.45;;;8.20;99.90;;;;;;5037848;28;20039;-87
2023/04/21 04:54:54;;;;;;;14.57;10.43;;;8.30;99.90;;;;;;5039691;28;20111;-86
2023/04/21 04:57:20;;;;;;;10.55;7.97;;;8.30;99.90;;;;;;5034792;28;20104;-86
2023/04/21 04:59:46;;;;;;;14.02;9.57;;;8.30;99.90;;;;;;5036029;28;20341;-86
2023/04/21 05:02:11;;;;;;;18.17;12.30;;;8.30;99.90;;;;;;5035106;28;20025;-86
2023/04/21 05:04:37;;;;;;;14.75;10.32;;;8.30;99.90;;;;;;5038101;28;20021;-86
2023/04/21 05:07:05;;;;;;;13.85;9.98;;;8.30;99.90;;;;;;5040670;28;20089;-86
2023/04/21 05:09:30;;;;;;;16.25;10.82;;;8.30;99.90;;;;;;5036253;28;20864;-87
2023/04/21 05:11:56;;;;;;;15.52;10.80;;;8.30;99.90;;;;;;5036858;28;20110;-86
2023/04/21 05:14:22;;;;;;;14.23;9.93;;;8.30;99.90;;;;;;5036743;28;20394;-87
2023/04/21 05:16:47;;;;;;;13.75;10.45;;;8.30;99.90;;;;;;5057596;28;20035;-86
2023/04/21 05:19:13;;;;;;;14.38;10.65;;;8.40;99.90;;;;;;5053875;28;20052;-86
2023/04/21 05:21:39;;;;;;;15.20;11.10;;;8.30;99.90;;;;;;5049010;28;20033;-85
2023/04/21 05:24:04;;;;;;;15.93;11.48;;;8.40;99.90;;;;;;5041433;28;20028;-85
2023/04/21 05:26:30;;;;;;;17.15;12.05;;;8.40;99.90;;;;;;5035755;28;20020;-86
2023/04/21 05:28:57;;;;;;;17.48;13.73;;;8.30;99.90;;;;;;5032167;28;20064;-86
2023/04/21 05:31:23;;;;;;;12.77;9.85;;;8.40;99.90;;;;;;5039562;28;20040;-86
2023/04/21 05:33:49;;;;;;;13.73;10.13;;;8.40;99.90;;;;;;5060475;28;20219;-86
2023/04/21 05:36:15;;;;;;;16.25;11.18;;;8.40;99.90;;;;;;5035386;28;20120;-86
2023/04/21 05:38:41;;;;;;;15.75;10.77;;;8.40;99.90;;;;;;5035392;28;20035;-86
2023/04/21 05:41:07;;;;;;;13.55;9.98;;;8.40;99.90;;;;;;5034789;28;20060;-86
2023/04/21 05:43:33;;;;;;;15.20;10.00;;;8.40;99.90;;;;;;5033396;28;20025;-85
2023/04/21 05:46:07;;;;;;;15.55;10.55;;;8.50;99.90;;;;;;5038011;28;20033;-86
2023/04/21 05:48:33;;;;;;;13.30;9.55;;;8.50;99.90;;;;;;5035408;28;20028;-87
2023/04/21 05:51:08;;;;;;;13.93;10.10;;;8.50;99.90;;;;;;5047042;28;20106;-86
2023/04/21 05:53:34;;;;;;;12.30;9.13;;;8.60;99.90;;;;;;5038305;28;20027;-86
2023/04/21 05:56:00;;;;;;;12.48;9.45;;;8.60;99.90;;;;;;5067398;28;20021;-86
2023/04/21 05:58:25;;;;;;;13.85;9.93;;;8.60;99.90;;;;;;5052043;28;20461;-86
2023/04/21 06:00:51;;;;;;;13.45;9.98;;;8.70;99.90;;;;;;5065796;28;20043;-87
2023/04/21 06:03:16;;;;;;;15.07;10.65;;;8.70;99.90;;;;;;5038371;28;20023;-86
2023/04/21 06:05:42;;;;;;;14.60;10.40;;;8.70;99.90;;;;;;5034768;28;20060;-86
2023/04/21 06:08:10;;;;;;;12.90;9.75;;;8.70;99.90;;;;;;5048516;28;20113;-86
2023/04/21 06:10:40;;;;;;;11.23;8.80;;;8.80;99.90;;;;;;5069417;28;20035;-86
2023/04/21 06:13:05;;;;;;;13.43;9.35;;;8.80;99.90;;;;;;5034997;28;20402;-86
2023/04/21 06:15:31;;;;;;;14.57;9.73;;;8.90;99.90;;;;;;5033428;28;20058;-87
2023/04/21 06:17:57;;;;;;;12.00;8.82;;;8.90;99.90;;;;;;5050637;28;20032;-86
2023/04/21 06:20:22;;;;;;;14.73;9.70;;;9.00;99.90;;;;;;5067886;28;20059;-86
2023/04/21 06:22:49;;;;;;;13.50;10.43;;;9.00;99.90;;;;;;5050779;28;20033;-87
2023/04/21 06:25:14;;;;;;;11.75;9.00;;;9.10;99.90;;;;;;5053481;28;20412;-87
2023/04/21 06:27:40;;;;;;;11.98;9.13;;;9.20;99.90;;;;;;5037794;28;20130;-86
2023/04/21 06:30:06;;;;;;;10.95;8.52;;;9.20;99.90;;;;;;5064673;28;20072;-86
2023/04/21 06:32:32;;;;;;;14.13;9.45;;;9.30;99.90;;;;;;5029104;28;20032;-86
2023/04/21 06:34:58;;;;;;;14.27;10.65;;;9.40;99.90;;;;;;5036795;28;20025;-87
2023/04/21 06:37:23;;;;;;;15.50;11.27;;;9.40;99.90;;;;;;5056042;28;20025;-87
2023/04/21 06:39:49;;;;;;;13.70;10.90;;;9.40;99.90;;;;;;5035689;28;20063;-86
2023/04/21 06:42:15;;;;;;;13.18;10.50;;;9.50;99.90;;;;;;5037279;28;20059;-86
2023/04/21 06:44:43;;;;;;;14.80;11.63;;;9.60;99.90;;;;;;5038793;28;20120;-87
2023/04/21 06:47:09;;;;;;;14.60;11.77;;;9.70;99.90;;;;;;5055251;28;20137;-87
2023/04/21 06:49:36;;;;;;;16.70;12.40;;;9.70;99.90;;;;;;5037326;28;20051;-87
2023/04/21 06:52:03;;;;;;;14.68;11.38;;;9.70;99.90;;;;;;5050016;28;20060;-87
2023/04/21 06:54:29;;;;;;;15.32;11.90;;;9.80;99.90;;;;;;5039313;28;20154;-85
2023/04/21 06:56:56;;;;;;;15.27;11.90;;;9.90;99.90;;;;;;5042136;28;20518;-86
2023/04/21 06:59:22;;;;;;;15.82;11.90;;;10.00;99.90;;;;;;5055030;28;20048;-85
2023/04/21 07:01:51;;;;;;;12.55;10.77;;;10.10;99.90;;;;;;5056273;28;20037;-86
2023/04/21 07:04:17;;;;;;;14.82;10.65;;;10.20;99.90;;;;;;5040405;28;20078;-85
2023/04/21 07:06:42;;;;;;;15.93;11.75;;;10.30;99.90;;;;;;5035856;28;20083;-86
2023/04/21 07:09:08;;;;;;;19.63;14.40;;;10.30;99.90;;;;;;5053890;28;20461;-86
2023/04/21 07:11:34;;;;;;;20.15;15.23;;;10.30;99.90;;;;;;5052335;28;20086;-84
2023/04/21 07:14:01;;;;;;;22.83;17.23;;;10.30;99.90;;;;;;5051729;28;20029;-85
2023/04/21 07:16:28;;;;;;;16.73;12.43;;;10.30;99.90;;;;;;5055573;28;20469;-86
2023/04/21 07:18:53;;;;;;;14.70;12.15;;;10.30;99.90;;;;;;5052852;28;20119;-86
2023/04/21 07:21:19;;;;;;;17.83;12.32;;;10.40;99.90;;;;;;5061568;28;20121;-86
2023/04/21 07:23:45;;;;;;;12.73;10.35;;;10.50;99.90;;;;;;5035592;28;20025;-85
2023/04/21 07:26:10;;;;;;;17.63;13.30;;;10.50;99.90;;;;;;5035517;28;20028;-85
2023/04/21 07:28:39;;;;;;;15.13;11.75;;;10.40;99.90;;;;;;5037619;28;20044;-87
2023/04/21 07:31:05;;;;;;;12.57;10.43;;;10.40;99.90;;;;;;5051552;28;20031;-86
2023/04/21 07:33:31;;;;;;;17.08;11.88;;;10.50;99.90;;;;;;5044796;28;20074;-83
2023/04/21 07:35:57;;;;;;;14.02;11.55;;;10.60;99.90;;;;;;5057710;28;20541;-87
2023/04/21 07:38:23;;;;;;;16.70;13.43;;;10.60;99.90;;;;;;5053761;28;20109;-88
2023/04/21 07:40:55;;;;;;;16.33;13.60;;;10.60;99.90;;;;;;5055490;28;20163;-86
2023/04/21 07:43:24;;;;;;;21.35;16.13;;;10.70;99.90;;;;;;5038935;28;20033;-84
2023/04/21 07:45:51;;;;;;;17.20;14.25;;;10.60;99.90;;;;;;5038627;28;20028;-85
2023/04/21 07:48:17;;;;;;;20.73;15.23;;;10.60;99.90;;;;;;5053170;28;20028;-83
2023/04/21 07:50:42;;;;;;;18.33;14.27;;;10.60;99.90;;;;;;5052380;28;20043;-86
2023/04/21 07:53:08;;;;;;;16.33;13.27;;;10.70;99.90;;;;;;5041740;28;20024;-86
2023/04/21 07:55:36;;;;;;;19.58;15.45;;;10.70;99.90;;;;;;5065748;28;20051;-85
2023/04/21 07:58:03;;;;;;;15.75;12.55;;;10.80;99.90;;;;;;5050261;28;20120;-85
2023/04/21 08:00:28;;;;;;;17.63;14.05;;;10.80;99.90;;;;;;5035581;28;20024;-85
2023/04/21 08:02:54;;;;;;;18.05;14.10;;;10.80;99.90;;;;;;5051733;28;20086;-85
2023/04/21 08:05:20;;;;;;;16.50;13.05;;;10.80;99.90;;;;;;5031981;28;20508;-84
2023/04/21 08:07:45;;;;;;;15.68;13.50;;;10.80;99.90;;;;;;5034072;28;20055;-87
2023/04/21 08:10:11;;;;;;;16.85;13.20;;;10.80;99.90;;;;;;5040942;28;20107;-85
2023/04/21 08:12:37;;;;;;;18.98;14.50;;;10.80;99.90;;;;;;5036438;28;20052;-86
2023/04/21 08:15:06;;;;;;;17.35;13.30;;;10.80;99.90;;;;;;5049930;28;20043;-84
2023/04/21 08:17:32;;;;;;;17.70;14.23;;;10.80;99.90;;;;;;5039624;28;20043;-84
2023/04/21 08:19:58;;;;;;;17.60;13.00;;;10.90;99.90;;;;;;5041121;28;20055;-84
2023/04/21 08:22:24;;;;;;;18.98;14.57;;;11.00;99.90;;;;;;5036645;28;20117;-84
2023/04/21 08:24:49;;;;;;;17.52;13.15;;;11.10;99.90;;;;;;5034572;28;20028;-84
2023/04/21 08:27:15;;;;;;;18.50;14.95;;;11.20;99.90;;;;;;5049195;28;20049;-85
2023/04/21 08:29:41;;;;;;;14.35;11.55;;;11.30;99.90;;;;;;5067992;28;20025;-85
2023/04/21 08:32:06;;;;;;;16.33;13.25;;;11.40;99.90;;;;;;5035079;28;20069;-84
2023/04/21 08:34:33;;;;;;;15.30;13.10;;;11.40;99.90;;;;;;5034195;28;20071;-84
2023/04/21 08:36:58;;;;;;;16.80;13.15;;;11.40;99.90;;;;;;5036513;28;20051;-84
2023/04/21 08:39:25;;;;;;;17.08;12.65;;;11.50;99.90;;;;;;5035614;28;20021;-84
2023/04/21 08:41:51;;;;;;;15.82;13.32;;;11.60;99.90;;;;;;5036245;28;20032;-84
2023/04/21 08:44:18;;;;;;;16.50;12.57;;;11.70;99.90;;;;;;5033563;28;20127;-83
2023/04/21 08:46:50;;;;;;;15.40;12.93;;;11.90;99.90;;;;;;5051926;28;20389;-82
2023/04/21 08:49:19;;;;;;;13.85;11.75;;;11.90;99.90;;;;;;5037898;28;20036;-83
2023/04/21 08:51:46;;;;;;;15.07;11.50;;;12.10;99.90;;;;;;5050487;28;20607;-83
2023/04/21 08:54:12;;;;;;;14.00;11.38;;;12.40;99.90;;;;;;5036588;28;20036;-83
2023/04/21 08:56:39;;;;;;;15.35;11.45;;;12.70;99.90;;;;;;5066846;28;20040;-83
2023/04/21 08:59:04;;;;;;;15.75;12.13;;;12.80;99.90;;;;;;5034794;28;20031;-80
2023/04/21 09:01:30;;;;;;;16.55;13.45;;;12.80;99.90;;;;;;5032914;28;20112;-84
2023/04/21 09:04:16;;;;;;;17.35;13.13;;;12.90;99.90;;;;;;5050692;28;20472;-82
2023/04/21 09:06:42;;;;;;;13.60;12.02;;;12.90;99.90;;;;;;5052791;28;20025;-82
2023/04/21 09:09:07;;;;;;;10.93;9.77;;;12.70;99.90;;;;;;5034509;28;20044;-83
2023/04/21 09:11:33;;;;;;;13.20;11.52;;;12.80;99.90;;;;;;5061448;28;20500;-82
2023/04/21 09:13:59;;;;;;;15.68;13.55;;;12.60;99.90;;;;;;5052274;28;20417;-83
2023/04/21 09:16:29;;;;;;;18.40;14.02;;;12.50;99.90;;;;;;5049030;28;20493;-82
2023/04/21 09:18:55;;;;;;;20.13;14.70;;;12.50;99.90;;;;;;5045978;28;20401;-81
2023/04/21 09:21:27;;;;;;;19.58;14.65;;;12.60;99.90;;;;;;5033731;28;20047;-83
2023/04/21 09:23:54;;;;;;;20.08;12.27;;;12.70;99.90;;;;;;5041215;28;20029;-83
2023/04/21 09:26:23;;;;;;;17.15;14.43;;;12.90;99.90;;;;;;5035465;28;20033;-83
2023/04/21 09:28:50;;;;;;;14.88;12.25;;;12.90;99.90;;;;;;5034422;28;20060;-83
2023/04/21 09:31:24;;;;;;;12.63;9.95;;;13.10;99.90;;;;;;5042556;28;20036;-84
2023/04/21 09:33:53;;;;;;;11.40;9.73;;;13.10;99.90;;;;;;5029161;28;20369;-84
2023/04/21 09:36:20;;;;;;;12.27;9.65;;;13.20;99.90;;;;;;5078059;28;20055;-84
2023/04/21 09:39:02;;;;;;;13.15;11.35;;;13.20;99.90;;;;;;5063965;28;20024;-83
2023/04/21 09:41:29;;;;;;;14.35;11.13;;;13.20;99.90;;;;;;5047455;28;20067;-87
2023/04/21 09:43:54;;;;;;;11.32;9.20;;;13.20;99.90;;;;;;5052087;28;20497;-86
2023/04/21 09:46:21;;;;;;;11.73;10.15;;;13.40;99.90;;;;;;5031644;28;20032;-83
2023/04/21 09:48:47;;;;;;;12.48;10.68;;;13.50;99.90;;;;;;5034133;28;20050;-84
2023/04/21 09:51:15;;;;;;;12.57;10.95;;;13.60;99.90;;;;;;5033583;28;20044;-85
2023/04/21 09:53:42;;;;;;;13.15;11.70;;;13.80;99.90;;;;;;5045510;28;20029;-84
2023/04/21 09:56:11;;;;;;;13.55;10.85;;;13.90;99.90;;;;;;5037713;28;20393;-81
2023/04/21 09:58:45;;;;;;;16.25;12.63;;;13.70;99.90;;;;;;5049987;28;20032;-83
2023/04/21 10:01:12;;;;;;;13.90;10.68;;;13.70;99.90;;;;;;5049352;28;20035;-81
2023/04/21 10:03:39;;;;;;;12.85;10.57;;;13.80;99.90;;;;;;5049589;28;20110;-83
2023/04/21 10:06:06;;;;;;;16.45;13.40;;;13.80;99.90;;;;;;5063758;28;20052;-80
2023/04/21 10:08:32;;;;;;;15.48;13.73;;;13.70;99.90;;;;;;5048913;28;20082;-84
2023/04/21 10:10:59;;;;;;;16.83;13.50;;;13.70;99.90;;;;;;5038639;28;20098;-82
2023/04/21 10:13:25;;;;;;;14.57;12.10;;;13.70;99.90;;;;;;5035837;28;20066;-82
2023/04/21 10:16:01;;;;;;;15.30;12.30;;;14.00;99.90;;;;;;5030296;28;20028;-83
2023/04/21 10:18:28;;;;;;;16.90;13.07;;;14.00;99.90;;;;;;5064404;28;20142;-83
2023/04/21 10:21:01;;;;;;;14.95;12.23;;;14.10;99.90;;;;;;5032171;28;20371;-81
2023/04/21 10:23:28;;;;;;;16.25;13.68;;;14.30;99.90;;;;;;5046439;28;20048;-83
2023/04/21 10:26:06;;;;;;;17.25;12.80;;;14.30;99.90;;;;;;5049716;28;20154;-82
2023/04/21 10:28:39;;;;;;;18.13;13.55;;;14.60;99.90;;;;;;5075619;28;20048;-82
2023/04/21 10:31:29;;;;;;;18.90;14.70;;;14.60;99.90;;;;;;5052907;28;20504;-84
2023/04/21 10:34:07;;;;;;;17.80;15.35;;;14.70;99.90;;;;;;5048841;28;20036;-83
2023/04/21 10:36:47;;;;;;;16.38;12.20;;;14.70;99.90;;;;;;5062726;28;20032;-83
2023/04/21 10:39:35;;;;;;;14.98;13.20;;;14.90;99.90;;;;;;5049129;28;20788;-84
2023/04/21 10:42:16;;;;;;;14.80;12.13;;;15.10;99.90;;;;;;5046259;28;20083;-84
2023/04/21 10:44:43;;;;;;;13.27;11.50;;;15.10;99.90;;;;;;5046057;28;20033;-83
2023/04/21 10:47:08;;;;;;;12.82;11.45;;;15.10;99.90;;;;;;5066173;28;20028;-83
2023/04/21 10:49:39;;;;;;;15.80;12.02;;;15.00;99.90;;;;;;5072956;28;20392;-81
2023/04/21 10:52:09;;;;;;;17.02;12.70;;;14.80;99.90;;;;;;5047178;28;20037;-85
2023/04/21 10:54:42;;;;;;;14.75;12.23;;;14.90;99.90;;;;;;5048240;28;20025;-81
2023/04/21 10:57:16;;;;;;;11.95;9.40;;;14.90;99.90;;;;;;5043940;28;20103;-83
2023/04/21 10:59:42;;;;;;;12.13;10.20;;;15.00;99.90;;;;;;5033886;28;20366;-83
2023/04/21 11:02:15;;;;;;;12.30;9.52;;;14.70;99.90;;;;;;5049800;28;20370;-83
2023/04/21 11:04:46;;;;;;;11.52;8.55;;;14.60;99.90;;;;;;5041007;28;20024;-82
2023/04/21 11:07:16;;;;;;;16.58;11.77;;;14.70;99.90;;;;;;5048385;28;20025;-82
2023/04/21 11:09:43;;;;;;;14.55;12.13;;;14.60;99.90;;;;;;5058092;28;20032;-82
2023/04/21 11:12:17;;;;;;;16.45;12.90;;;14.60;99.90;;;;;;5032374;28;20049;-82
2023/04/21 11:14:46;;;;;;;15.43;12.52;;;14.50;99.90;;;;;;5044188;28;20033;-82
2023/04/21 11:17:14;;;;;;;11.05;9.85;;;14.60;99.90;;;;;;5062107;28;20457;-81
2023/04/21 11:19:40;;;;;;;15.80;12.13;;;14.80;99.90;;;;;;5041313;28;20029;-82
2023/04/21 11:22:06;;;;;;;13.55;11.40;;;14.80;99.90;;;;;;5060161;28;20035;-81
2023/04/21 11:24:32;;;;;;;12.75;10.27;;;15.20;99.90;;;;;;5047453;28;20028;-85
2023/04/21 11:26:59;;;;;;;11.95;9.88;;;15.50;99.90;;;;;;5034265;28;20036;-82
2023/04/21 11:29:25;;;;;;;13.70;11.25;;;15.70;99.90;;;;;;5043768;28;20057;-82
2023/04/21 11:31:52;;;;;;;12.50;9.93;;;15.40;99.90;;;;;;5033285;28;20068;-83
2023/04/21 11:34:24;;;;;;;13.95;12.07;;;15.50;99.90;;;;;;5064860;28;20493;-82
2023/04/21 11:36:51;;;;;;;13.70;11.73;;;15.40;99.90;;;;;;5059669;28;20028;-82
2023/04/21 11:39:20;;;;;;;13.80;10.18;;;15.30;99.90;;;;;;5067536;28;20032;-85
2023/04/21 11:41:48;;;;;;;16.88;12.68;;;15.40;99.90;;;;;;5043849;28;20040;-83
2023/04/21 11:44:30;;;;;;;14.88;12.55;;;15.10;99.90;;;;;;5034479;28;20124;-81
2023/04/21 11:46:56;;;;;;;14.00;11.50;;;15.00;99.90;;;;;;5033797;28;20033;-80
2023/04/21 11:49:28;;;;;;;14.10;10.50;;;15.20;99.90;;;;;;5033126;28;20093;-81
2023/04/21 11:51:55;;;;;;;12.88;10.30;;;15.40;99.90;;;;;;5037012;28;20123;-81
2023/04/21 11:54:23;;;;;;;13.07;11.02;;;15.60;99.90;;;;;;5050555;28;20486;-80
2023/04/21 11:56:50;;;;;;;11.90;10.18;;;15.70;99.90;;;;;;5044592;28;20031;-80
2023/04/21 11:59:21;;;;;;;12.02;10.35;;;15.60;99.90;;;;;;5031453;28;20558;-81
2023/04/21 12:01:53;;;;;;;13.50;12.07;;;15.30;99.90;;;;;;5055108;28;20472;-81
2023/04/21 12:04:23;;;;;;;14.40;12.18;;;15.20;99.90;;;;;;5043623;28;20036;-81
2023/04/21 12:06:58;;;;;;;13.25;11.48;;;15.20;99.90;;;;;;5045343;28;20025;-82
2023/04/21 12:09:24;;;;;;;13.73;11.02;;;15.20;99.90;;;;;;5049744;28;20063;-80
2023/04/21 12:11:52;;;;;;;13.00;10.55;;;15.10;99.90;;;;;;5048462;28;20551;-80
2023/04/21 12:14:20;;;;;;;16.95;12.93;;;14.90;99.90;;;;;;5062300;28;20108;-80
2023/04/21 12:16:52;;;;;;;12.60;10.60;;;14.80;99.90;;;;;;5048473;28;20107;-81
2023/04/21 12:19:38;;;;;;;15.98;12.05;;;15.00;99.90;;;;;;5060945;28;20070;-80
2023/04/21 12:22:17;;;;;;;17.42;13.93;;;15.70;99.90;;;;;;5029020;28;20404;-80
2023/04/21 12:24:44;;;;;;;19.15;15.55;;;16.00;99.90;;;;;;5065329;28;20040;-80
2023/04/21 12:27:10;;;;;;;16.55;13.70;;;15.80;99.90;;;;;;5041514;28;20120;-80
2023/04/21 12:29:37;;;;;;;17.40;13.70;;;15.60;99.90;;;;;;5063902;28;20031;-79
2023/04/21 12:32:09;;;;;;;15.38;11.88;;;15.80;99.90;;;;;;5066061;28;20135;-80
2023/04/21 12:34:35;;;;;;;18.92;14.13;;;15.80;99.90;;;;;;5036478;28;20028;-80
2023/04/21 12:37:01;;;;;;;16.27;13.27;;;15.90;99.90;;;;;;5064270;28;20025;-80
2023/04/21 12:39:30;;;;;;;18.17;14.65;;;15.80;99.90;;;;;;5064820;28;20016;-81